Time;durP1;ratioP1;P1;durP2;ratioP2;P2;SDS_P1;SDS_P2;PMS_P1;PMS_P2;Temp;Humidity;BMP_temperature;BMP_pressure;BME280_temperature;BME280_humidity;BME280_pressure;Samples;Min_cycle;Max_cycle;Signal;HPM_P1;HPM_P2
2023/11/04 00:01:32;;;;;;;;;13.00;12.33;;;;;8.04;100.00;97740.91;6279546;20;3521247;-44
2023/11/04 00:04:00;;;;;;;;;15.00;13.50;;;;;8.08;100.00;97737.00;6313136;20;2806644;-45
2023/11/04 00:06:29;;;;;;;;;11.33;11.33;;;;;7.96;100.00;97734.50;6280679;20;2791970;-46
2023/11/04 00:08:59;;;;;;;;;10.00;10.00;;;;;7.31;100.00;97738.84;6339036;20;2760722;-46
2023/11/04 00:11:28;;;;;;;;;25.00;23.00;;;;;7.54;100.00;97748.53;6279228;20;2844138;-46
2023/11/04 00:13:58;;;;;;;;;38.67;32.33;;;;;7.61;100.00;97754.22;6280719;20;2860784;-48
2023/11/04 00:16:27;;;;;;;;;25.00;25.00;;;;;7.69;100.00;97757.16;6309874;20;2845030;-45
2023/11/04 00:18:55;;;;;;;;;24.00;21.50;;;;;7.42;100.00;97754.84;6279540;20;2500293;-43
2023/11/04 00:21:25;;;;;;;;;19.00;16.00;;;;;7.70;100.00;97761.50;6277252;20;3552374;-46
2023/11/04 00:23:53;;;;;;;;;19.50;19.00;;;;;7.91;100.00;97766.94;6274296;20;2496166;-49
2023/11/04 00:26:22;;;;;;;;;21.00;21.00;;;;;7.65;100.00;97761.88;6280104;20;3561653;-46
2023/11/04 00:28:51;;;;;;;;;23.67;19.00;;;;;7.47;100.00;97769.53;6281213;20;3577370;-44
2023/11/04 00:31:19;;;;;;;;;24.00;21.50;;;;;7.16;100.00;97768.47;6272762;20;2498250;-44
2023/11/04 00:33:48;;;;;;;;;24.00;20.00;;;;;7.50;100.00;97760.44;6281552;20;2839883;-49
2023/11/04 00:36:18;;;;;;;;;17.00;15.00;;;;;8.01;100.00;97762.53;6282140;20;2817075;-51
2023/11/04 00:38:48;;;;;;;;;18.33;18.33;;;;;7.85;100.00;97756.75;6278174;20;3569040;-45
2023/11/04 00:41:19;;;;;;;;;19.67;15.67;;;;;7.90;100.00;97750.06;6278552;20;3542986;-44
2023/11/04 00:43:47;;;;;;;;;15.50;14.00;;;;;7.86;100.00;97747.75;6310876;20;2795036;-45
2023/11/04 00:46:16;;;;;;;;;12.00;12.00;;;;;8.14;100.00;97739.16;6277870;20;3531502;-46
2023/11/04 00:48:44;;;;;;;;;16.00;13.00;;;;;7.95;100.00;97747.00;6312722;20;2819828;-45
2023/11/04 00:51:12;;;;;;;;;12.00;11.00;;;;;8.05;100.00;97747.94;6280832;20;2788990;-45
2023/11/04 00:53:41;;;;;;;;;15.67;13.33;;;;;7.99;100.00;97743.09;6277567;20;3538808;-47
2023/11/04 00:56:09;;;;;;;;;11.00;10.00;;;;;7.99;100.00;97731.56;6313281;20;2790909;-49
2023/11/04 00:58:37;;;;;;;;;10.00;8.50;;;;;7.33;100.00;97723.56;6279983;20;2757583;-47
2023/11/04 01:01:07;;;;;;;;;13.67;12.00;;;;;7.10;100.00;97744.91;6278267;20;2810840;-48
2023/11/04 01:03:36;;;;;;;;;15.67;13.67;;;;;7.16;100.00;97739.13;6309468;20;3540895;-45
2023/11/04 01:06:05;;;;;;;;;16.33;15.33;;;;;7.63;100.00;97752.28;6308490;20;3536775;-45
2023/11/04 01:08:33;;;;;;;;;11.50;11.00;;;;;7.74;100.00;97754.97;6311467;20;2790011;-45
2023/11/04 01:11:01;;;;;;;;;11.00;11.00;;;;;7.62;100.00;97756.78;6278883;20;2794021;-45
2023/11/04 01:13:29;;;;;;;;;15.67;11.00;;;;;7.83;100.00;97753.34;6280367;20;2795098;-45
2023/11/04 01:15:58;;;;;;;;;10.00;10.00;;;;;7.86;100.00;97750.44;6309160;20;2785834;-48
2023/11/04 01:18:26;;;;;;;;;12.50;10.50;;;;;7.83;100.00;97748.84;6308873;20;2786839;-46
2023/11/04 01:20:56;;;;;;;;;11.80;11.20;;;;;7.83;100.00;97742.66;6301162;20;2783638;-45
2023/11/04 01:23:24;;;;;;;;;9.50;9.50;;;;;7.93;100.00;97737.44;6280086;20;2762821;-46
2023/11/04 01:25:53;;;;;;;;;10.80;8.80;;;;;7.95;100.00;97735.47;6303749;20;2783670;-46
2023/11/04 01:28:21;;;;;;;;;12.00;10.50;;;;;7.95;100.00;97747.00;6278516;20;2788772;-45
2023/11/04 01:30:50;;;;;;;;;11.00;9.50;;;;;7.91;100.00;97746.41;6282767;20;2775495;-45
2023/11/04 01:33:18;;;;;;;;;9.50;8.50;;;;;7.75;100.00;97750.47;6276762;20;2756500;-47
2023/11/04 01:35:46;;;;;;;;;9.00;6.50;;;;;7.35;100.00;97770.53;6276567;20;2746665;-46
2023/11/04 01:38:14;;;;;;;;;15.50;10.50;;;;;7.51;100.00;97772.81;6275354;20;2796167;-48
2023/11/04 01:40:49;;;;;;;;;12.00;9.50;;;;;7.84;100.00;97771.91;6278686;20;2775246;-49
2023/11/04 01:43:29;;;;;;;;;11.29;8.86;;;;;8.13;100.00;97771.34;6323733;20;1802729;-46
2023/11/04 01:46:12;;;;;;;;;7.00;7.00;;;;;7.86;100.00;97771.81;6314787;20;2734797;-44
2023/11/04 01:48:43;;;;;;;;;11.80;9.60;;;;;7.47;100.00;97779.38;6339421;20;2783585;-44
2023/11/04 01:51:16;;;;;;;;;8.57;8.57;;;;;8.11;100.00;97781.34;6325612;20;1801406;-39
2023/11/04 01:53:53;;;;;;;;;10.00;9.00;;;;;8.00;100.00;97771.50;6315325;20;2760771;-46
2023/11/04 01:56:35;;;;;;;;;7.00;7.00;;;;;8.00;100.00;97765.31;6283759;20;2737740;-46
2023/11/04 01:59:04;;;;;;;;;6.40;6.40;;;;;8.03;100.00;97771.28;6310351;20;2736769;-45
2023/11/04 02:01:34;;;;;;;;;11.00;8.50;;;;;8.12;100.00;97775.84;6316320;20;2763809;-45
2023/11/04 02:04:03;;;;;;;;;8.00;8.00;;;;;8.10;100.00;97767.13;6296374;20;2735771;-45
2023/11/04 02:06:31;;;;;;;;;10.00;7.00;;;;;8.11;100.00;97758.13;6284100;20;2756697;-45
2023/11/04 02:08:59;;;;;;;;;10.50;10.00;;;;;8.00;100.00;97760.81;6282743;20;2775290;-46
2023/11/04 02:11:27;;;;;;;;;9.00;9.00;;;;;8.10;100.00;97761.75;6281560;20;2750361;-48
2023/11/04 02:13:55;;;;;;;;;8.00;6.00;;;;;8.11;100.00;97758.13;6287696;20;2742009;-51
2023/11/04 02:16:24;;;;;;;;;7.25;5.75;;;;;7.99;100.00;97764.47;6331902;20;1808154;-45
2023/11/04 02:18:52;;;;;;;;;8.00;8.00;;;;;7.77;100.00;97772.56;6316322;20;2743009;-47
2023/11/04 02:21:20;;;;;;;;;5.00;5.00;;;;;7.98;100.00;97773.47;6288266;20;2743018;-45
2023/11/04 02:23:48;;;;;;;;;5.50;5.50;;;;;8.16;100.00;97759.56;6315281;20;2744055;-45
2023/11/04 02:26:16;;;;;;;;;27.00;22.00;;;;;8.28;100.00;97761.22;6282412;20;2837788;-45
2023/11/04 02:28:46;;;;;;;;;45.50;40.00;;;;;8.16;100.00;97759.56;6279940;20;2869093;-44
2023/11/04 02:31:14;;;;;;;;;25.00;23.50;;;;;8.07;100.00;97766.53;6281343;20;2843043;-46
2023/11/04 02:33:43;;;;;;;;;14.00;14.00;;;;;7.96;100.00;97767.41;6279844;20;3547162;-44
2023/11/04 02:36:11;;;;;;;;;13.50;13.50;;;;;8.00;100.00;97755.47;6316442;20;2802421;-44
2023/11/04 02:38:41;;;;;;;;;11.40;11.40;;;;;8.03;100.00;97762.41;6308235;20;2804546;-45
2023/11/04 02:41:09;;;;;;;;;13.00;12.50;;;;;7.90;100.00;97767.91;6282723;20;2806566;-47
2023/11/04 02:43:38;;;;;;;;;19.33;15.67;;;;;7.61;100.00;97763.13;6282567;20;3554429;-49
2023/11/04 02:46:07;;;;;;;;;17.33;17.33;;;;;7.85;100.00;97762.09;6281121;20;3558629;-50
2023/11/04 02:48:35;;;;;;;;;13.33;12.00;;;;;7.72;100.00;97766.75;6281414;20;2810970;-49
2023/11/04 02:51:06;;;;;;;;;18.00;15.33;;;;;7.55;100.00;97771.59;6332787;20;2823241;-47
2023/11/04 02:53:35;;;;;;;;;21.00;20.00;;;;;7.23;100.00;97771.50;6310721;20;2835747;-51
2023/11/04 02:56:03;;;;;;;;;24.00;23.00;;;;;7.39;100.00;97771.13;6286726;20;2746119;-48
2023/11/04 02:58:32;;;;;;;;;25.00;21.00;;;;;7.30;100.00;97767.38;6279610;20;2851276;-50
2023/11/04 03:01:01;;;;;;;;;6.50;6.50;;;;;7.76;100.00;97760.16;6298161;20;1810773;-47
2023/11/04 03:03:31;;;;;;;;;9.40;9.40;;;;;7.67;100.00;97759.94;6340379;20;2751369;-46
2023/11/04 03:06:00;;;;;;;;;23.00;20.50;;;;;7.62;100.00;97756.78;6279834;20;2841973;-49
2023/11/04 03:08:30;;;;;;;;;11.60;11.60;;;;;7.67;100.00;97759.94;6310120;20;2793029;-46
2023/11/04 03:10:58;;;;;;;;;11.00;10.00;;;;;7.56;100.00;97762.63;6281421;20;2771132;-45
2023/11/04 03:13:26;;;;;;;;;9.00;9.00;;;;;7.59;100.00;97769.53;6284331;20;2744059;-48
2023/11/04 03:15:54;;;;;;;;;11.00;8.00;;;;;7.63;100.00;97774.50;6281659;20;2771102;-47
2023/11/04 03:18:25;;;;;;;;;12.71;9.86;;;;;7.52;100.00;97771.84;6323685;20;1804524;-46
2023/11/04 03:20:54;;;;;;;;;9.00;9.00;;;;;7.44;100.00;97782.28;6315897;20;2746160;-47
2023/11/04 03:23:22;;;;;;;;;9.50;9.00;;;;;7.60;100.00;97784.59;6298580;20;1808848;-46
2023/11/04 03:25:51;;;;;;;;;7.75;6.00;;;;;7.52;100.00;97793.22;6327261;20;1809547;-46
2023/11/04 03:28:19;;;;;;;;;6.00;6.00;;;;;7.60;100.00;97787.25;6313940;20;2743681;-43
2023/11/04 03:30:47;;;;;;;;;6.00;6.00;;;;;7.38;100.00;97796.13;6314738;20;2746092;-45
2023/11/04 03:33:15;;;;;;;;;13.00;8.00;;;;;7.51;100.00;97788.84;6311201;20;2761790;-46
2023/11/04 03:35:44;;;;;;;;;9.50;9.50;;;;;7.55;100.00;97789.44;6279159;20;2762771;-46
2023/11/04 03:38:12;;;;;;;;;6.50;6.50;;;;;7.87;100.00;97794.88;6282863;20;2740924;-44
2023/11/04 03:40:40;;;;;;;;;16.00;11.50;;;;;7.88;100.00;97785.91;6281605;20;2805505;-44
2023/11/04 03:43:09;;;;;;;;;53.00;41.50;;;;;7.98;100.00;97786.84;6279647;20;2848186;-47
2023/11/04 03:45:38;;;;;;;;;37.00;33.00;;;;;7.78;100.00;97783.09;6278197;20;2849290;-44
2023/11/04 03:48:08;;;;;;;;;32.67;29.00;;;;;7.83;100.00;97786.25;6281860;20;2857650;-46
2023/11/04 03:50:36;;;;;;;;;7.00;7.00;;;;;7.99;100.00;97772.50;6313417;20;2740956;-44
2023/11/04 03:53:04;;;;;;;;;4.00;4.00;;;;;7.86;100.00;97766.47;6278486;20;2747376;-44
2023/11/04 03:55:32;;;;;;;;;6.00;6.00;;;;;7.85;100.00;97772.78;6284203;20;2744051;-45
2023/11/04 03:58:00;;;;;;;;;10.00;8.50;;;;;7.84;100.00;97781.75;6310551;20;2761858;-47
2023/11/04 04:00:28;;;;;;;;;5.50;4.50;;;;;7.81;100.00;97792.69;6280294;20;2744067;-47
2023/11/04 04:02:56;;;;;;;;;4.50;4.50;;;;;7.76;100.00;97800.22;6281215;20;2745084;-45
2023/11/04 04:05:25;;;;;;;;;2.00;2.00;;;;;7.85;100.00;97808.38;6295421;20;1819937;-47
2023/11/04 04:07:54;;;;;;;;;5.00;5.00;;;;;7.95;100.00;97816.47;6313961;20;2754490;-48
2023/11/04 04:10:21;;;;;;;;;8.00;4.00;;;;;7.98;100.00;97816.25;6282478;20;2748316;-47
2023/11/04 04:12:51;;;;;;;;;3.00;3.00;;;;;7.94;100.00;97817.44;6282790;20;2465953;-47
2023/11/04 04:15:20;;;;;;;;;4.25;4.00;;;;;7.97;100.00;97827.03;6331252;20;1823347;-48
2023/11/04 04:17:50;;;;;;;;;4.00;4.00;;;;;7.98;100.00;97832.28;6332282;20;1810799;-39
2023/11/04 04:20:21;;;;;;;;;3.50;3.50;;;;;8.13;100.00;97836.34;6316943;20;2739908;-38
2023/11/04 04:22:49;;;;;;;;;4.50;3.00;;;;;8.21;100.00;97848.25;6313271;20;2739888;-46
2023/11/04 04:25:18;;;;;;;;;4.00;4.00;;;;;8.01;100.00;97836.53;6299707;20;1821239;-38
2023/11/04 04:27:47;;;;;;;;;3.00;3.00;;;;;8.07;100.00;97831.50;6330156;20;1814940;-38
2023/11/04 04:30:16;;;;;;;;;4.00;4.00;;;;;8.20;100.00;97820.69;6313253;20;2756567;-39
2023/11/04 04:32:46;;;;;;;;;5.25;5.25;;;;;8.06;100.00;97807.59;6298165;20;1811494;-38
2023/11/04 04:35:14;;;;;;;;;9.50;7.50;;;;;7.82;100.00;97818.44;6310386;20;2748212;-40
2023/11/04 04:37:42;;;;;;;;;10.50;9.00;;;;;8.02;100.00;97823.03;6314513;20;2769010;-39
2023/11/04 04:40:11;;;;;;;;;12.00;10.00;;;;;7.93;100.00;97801.56;6279804;20;2778448;-40
2023/11/04 04:42:39;;;;;;;;;10.00;10.00;;;;;8.14;100.00;97784.59;6280615;20;2779436;-37
2023/11/04 04:45:07;;;;;;;;;5.50;4.00;;;;;8.01;100.00;97778.56;6284190;20;2743004;-37
2023/11/04 04:47:38;;;;;;;;;5.00;3.00;;;;;7.72;100.00;97772.09;6312968;20;2750351;-38
2023/11/04 04:50:06;;;;;;;;;4.50;4.50;;;;;7.48;100.00;97759.72;6282563;20;2752423;-47
2023/11/04 04:52:34;;;;;;;;;3.50;3.50;;;;;7.97;100.00;97761.09;6281807;20;2741962;-47
2023/11/04 04:55:02;;;;;;;;;4.00;4.00;;;;;7.90;100.00;97771.44;6313667;20;2756505;-48
2023/11/04 04:57:30;;;;;;;;;6.00;6.00;;;;;7.85;100.00;97767.44;6283199;20;2741118;-44
2023/11/04 04:59:58;;;;;;;;;9.00;8.50;;;;;7.87;100.00;97770.81;6310925;20;2736744;-52
2023/11/04 05:02:26;;;;;;;;;9.00;9.00;;;;;7.88;100.00;97770.72;6283123;20;2746170;-45
2023/11/04 05:04:54;;;;;;;;;12.00;9.00;;;;;7.95;100.00;97765.69;6278785;20;2750316;-47
2023/11/04 05:07:23;;;;;;;;;10.50;9.00;;;;;7.89;100.00;97763.53;6279262;20;2773309;-48
2023/11/04 05:09:51;;;;;;;;;14.00;9.00;;;;;7.67;100.00;97765.28;6281054;20;2775286;-48
2023/11/04 05:12:20;;;;;;;;;9.25;7.75;;;;;7.85;100.00;97759.44;6296588;20;1810899;-46
2023/11/04 05:14:47;;;;;;;;;8.00;5.50;;;;;7.86;100.00;97758.44;6312523;20;2730621;-52
2023/11/04 05:17:17;;;;;;;;;14.00;13.00;;;;;7.93;100.00;97748.97;6310721;20;2805620;-53
2023/11/04 05:19:46;;;;;;;;;4.00;4.00;;;;;7.83;100.00;97756.88;6319669;20;2742987;-53
2023/11/04 05:22:15;;;;;;;;;5.00;5.00;;;;;7.78;100.00;97744.88;6332601;20;1803522;-54
2023/11/04 05:24:43;;;;;;;;;8.50;6.00;;;;;7.90;100.00;97743.88;6318332;20;2745060;-52
2023/11/04 05:27:11;;;;;;;;;6.00;4.50;;;;;8.10;100.00;97752.91;6286044;20;2744051;-48
2023/11/04 05:29:40;;;;;;;;;3.25;2.75;;;;;7.99;100.00;97759.13;6300821;20;1821179;-48
2023/11/04 05:32:09;;;;;;;;;2.33;2.33;;;;;8.03;100.00;97771.28;6339206;20;1812873;-51
2023/11/04 05:34:39;;;;;;;;;11.20;10.00;;;;;8.05;100.00;97766.63;6339267;20;2794026;-49
2023/11/04 05:37:07;;;;;;;;;5.00;5.00;;;;;7.89;100.00;97768.88;6305445;20;1818735;-53
2023/11/04 05:39:36;;;;;;;;;3.25;3.25;;;;;8.01;100.00;97767.03;6334405;20;1813886;-48
2023/11/04 05:42:05;;;;;;;;;3.00;3.00;;;;;7.95;100.00;97773.72;6317880;20;2730508;-52
2023/11/04 05:44:34;;;;;;;;;3.00;2.75;;;;;7.93;100.00;97775.69;6336102;20;1813943;-51
2023/11/04 05:47:04;;;;;;;;;1.00;1.00;;;;;7.93;100.00;97791.72;6330488;20;1809740;-49
2023/11/04 05:49:33;;;;;;;;;1.00;1.00;;;;;7.86;100.00;97795.84;6336293;20;1802389;-50
2023/11/04 05:52:02;;;;;;;;;1.25;1.25;;;;;7.98;100.00;97789.53;6331054;20;1809861;-46
2023/11/04 05:54:31;;;;;;;;;2.00;2.00;;;;;8.16;100.00;97786.28;6334774;20;1813939;-44
2023/11/04 05:57:01;;;;;;;;;1.75;1.75;;;;;8.10;100.00;97782.31;6333053;20;1803865;-51
2023/11/04 05:59:28;;;;;;;;;2.50;1.00;;;;;8.21;100.00;97784.09;6319520;20;2721173;-40
2023/11/04 06:01:57;;;;;;;;;1.75;1.75;;;;;7.94;100.00;97798.75;6332706;20;1800362;-46
2023/11/04 06:04:26;;;;;;;;;1.75;1.75;;;;;7.93;100.00;97797.06;6333049;20;1806547;-46
2023/11/04 06:06:54;;;;;;;;;3.00;3.00;;;;;7.97;100.00;97803.84;6331746;20;1816002;-46
2023/11/04 06:09:23;;;;;;;;;3.00;3.00;;;;;7.78;100.00;97815.16;6334310;20;1810224;-39
2023/11/04 06:11:51;;;;;;;;;3.00;3.00;;;;;7.74;100.00;97828.88;6316319;20;2749206;-41
2023/11/04 06:14:20;;;;;;;;;3.75;3.75;;;;;7.48;100.00;97831.81;6301983;20;1812862;-42
2023/11/04 06:16:49;;;;;;;;;3.00;3.00;;;;;7.85;100.00;97836.91;6334448;20;1812872;-40
2023/11/04 06:19:17;;;;;;;;;4.00;3.00;;;;;7.65;100.00;97834.00;6317303;20;2748220;-37
2023/11/04 06:21:48;;;;;;;;;4.00;4.00;;;;;7.94;100.00;97829.97;6282181;20;2754441;-37
2023/11/04 06:24:16;;;;;;;;;3.50;3.50;;;;;8.36;100.00;97826.47;6285925;20;2744067;-38
2023/11/04 06:26:44;;;;;;;;;2.00;2.00;;;;;7.98;100.00;97826.06;6286334;20;2744052;-38
2023/11/04 06:29:12;;;;;;;;;2.00;2.00;;;;;7.95;100.00;97827.16;6316071;20;2748200;-39
2023/11/04 06:31:39;;;;;;;;;2.00;1.00;;;;;8.31;100.00;97838.50;6286324;20;2726333;-38
2023/11/04 06:34:07;;;;;;;;;9.00;4.50;;;;;8.39;100.00;97840.56;6313741;20;2753448;-38
2023/11/04 06:36:36;;;;;;;;;9.00;9.00;;;;;8.34;100.00;97841.78;6284189;20;2744080;-49
2023/11/04 06:39:06;;;;;;;;;11.00;9.40;;;;;8.12;100.00;97845.34;6305132;20;2753519;-52
2023/11/04 06:41:37;;;;;;;;;12.60;9.60;;;;;8.01;100.00;97848.06;6337260;20;2779563;-50
2023/11/04 06:44:06;;;;;;;;;13.50;12.00;;;;;8.04;100.00;97858.50;6286998;20;2809694;-48
2023/11/04 06:46:33;;;;;;;;;10.00;9.50;;;;;8.09;100.00;97856.31;6278930;20;2779640;-43
2023/11/04 06:49:02;;;;;;;;;7.50;7.50;;;;;8.42;100.00;97878.63;6304053;20;1810741;-50
2023/11/04 06:51:32;;;;;;;;;9.50;7.00;;;;;8.19;100.00;97877.81;6314973;20;2743471;-39
2023/11/04 06:54:00;;;;;;;;;10.00;10.00;;;;;8.57;100.00;97888.06;6280747;20;2772163;-39
2023/11/04 06:56:31;;;;;;;;;5.00;4.00;;;;;8.45;100.00;97890.88;6285683;20;2747239;-45
2023/11/04 06:59:02;;;;;;;;;8.00;5.00;;;;;8.41;100.00;97890.28;6325719;20;1793433;-46
2023/11/04 07:01:30;;;;;;;;;4.00;4.00;;;;;8.66;100.00;97890.94;6283525;20;2752358;-45
2023/11/04 07:03:58;;;;;;;;;6.50;5.50;;;;;8.75;100.00;97899.06;6286958;20;2735819;-47
2023/11/04 07:06:26;;;;;;;;;6.00;5.00;;;;;8.64;100.00;97893.78;6313284;20;2745126;-49
2023/11/04 07:08:55;;;;;;;;;4.75;4.75;;;;;8.64;100.00;97908.97;6300530;20;1812853;-40
2023/11/04 07:11:23;;;;;;;;;4.00;4.00;;;;;8.64;100.00;97903.63;6313685;20;2756522;-39
2023/11/04 07:13:51;;;;;;;;;9.00;5.00;;;;;8.76;100.00;97903.44;6286035;20;2750346;-41
2023/11/04 07:16:19;;;;;;;;;9.00;9.00;;;;;8.76;100.00;97907.94;6284278;20;2739873;-40
2023/11/04 07:18:47;;;;;;;;;5.00;5.00;;;;;8.91;100.00;97905.84;6283630;20;2754488;-39
2023/11/04 07:21:15;;;;;;;;;13.00;10.00;;;;;8.90;100.00;97901.44;6279343;20;2776341;-40
2023/11/04 07:23:43;;;;;;;;;6.00;6.00;;;;;8.77;100.00;97901.63;6284667;20;2741023;-52
2023/11/04 07:26:11;;;;;;;;;8.00;6.00;;;;;9.07;100.00;97900.88;6284426;20;2732562;-50
2023/11/04 07:28:40;;;;;;;;;6.75;5.25;;;;;8.98;100.00;97896.31;6332834;20;1803542;-39
2023/11/04 07:31:10;;;;;;;;;11.50;11.50;;;;;9.00;100.00;97888.97;6312613;20;2781555;-45
2023/11/04 07:33:40;;;;;;;;;37.00;30.33;;;;;8.96;100.00;97883.06;6282225;20;2871399;-39
2023/11/04 07:36:10;;;;;;;;;34.33;32.00;;;;;8.84;100.00;97889.41;6313789;20;3614893;-39
2023/11/04 07:38:39;;;;;;;;;38.67;31.67;;;;;8.77;100.00;97893.59;6314943;20;3626359;-40
2023/11/04 07:41:09;;;;;;;;;27.50;24.00;;;;;8.98;100.00;97891.81;6280004;20;2848285;-41
2023/11/04 07:43:38;;;;;;;;;24.50;18.00;;;;;8.95;100.00;97880.50;6279107;20;2838847;-40
2023/11/04 07:46:07;;;;;;;;;24.50;22.50;;;;;8.76;100.00;97876.69;6280722;20;2849505;-54
2023/11/04 07:48:36;;;;;;;;;22.00;17.00;;;;;8.85;100.00;97875.09;6277758;20;3557551;-39
2023/11/04 07:51:05;;;;;;;;;13.00;12.00;;;;;9.16;100.00;97877.81;6281409;20;2788907;-39
2023/11/04 07:53:33;;;;;;;;;15.00;12.00;;;;;9.17;100.00;97875.03;6284045;20;2809755;-39
2023/11/04 07:56:06;;;;;;;;;14.00;13.00;;;;;9.19;100.00;97869.56;6279707;20;2794148;-49
2023/11/04 07:58:35;;;;;;;;;12.67;10.67;;;;;9.38;100.00;97847.41;6310918;20;2788907;-50
2023/11/04 08:01:03;;;;;;;;;14.50;12.00;;;;;9.47;100.00;97849.28;6313559;20;2794049;-48
2023/11/04 08:03:32;;;;;;;;;15.67;11.33;;;;;9.75;100.00;97850.41;6284830;20;2796284;-46
2023/11/04 08:06:00;;;;;;;;;7.50;7.50;;;;;9.63;100.00;97838.06;6316689;20;2748286;-47
2023/11/04 08:08:29;;;;;;;;;7.00;4.00;;;;;9.61;100.00;97840.91;6284826;20;2744117;-45
2023/11/04 08:10:57;;;;;;;;;5.00;4.50;;;;;9.81;100.00;97831.09;6284134;20;2748310;-45
2023/11/04 08:13:25;;;;;;;;;4.50;4.00;;;;;9.80;100.00;97824.06;6285962;20;2756579;-46
2023/11/04 08:15:54;;;;;;;;;3.25;3.25;;;;;9.93;100.00;97814.94;6304244;20;1805639;-50
2023/11/04 08:18:28;;;;;;;;;5.00;4.00;;;;;10.17;100.00;97819.94;6318217;20;2747245;-50
2023/11/04 08:20:57;;;;;;;;;4.00;4.00;;;;;10.02;100.00;97812.25;6286400;20;2750294;-49
2023/11/04 08:23:25;;;;;;;;;4.00;4.00;;;;;9.84;100.00;97797.81;6285651;20;2754447;-51
2023/11/04 08:25:53;;;;;;;;;3.00;3.00;;;;;10.23;100.00;97798.75;6284688;20;2752395;-51
2023/11/04 08:28:21;;;;;;;;;2.00;2.00;;;;;10.14;100.00;97788.00;6272697;20;2748226;-53
2023/11/04 08:30:51;;;;;;;;;3.00;3.00;;;;;10.28;100.00;97791.16;6283156;20;2748331;-48
2023/11/04 08:33:19;;;;;;;;;4.00;2.50;;;;;10.30;100.00;97797.25;6277991;20;2756575;-48
2023/11/04 08:35:47;;;;;;;;;4.00;2.50;;;;;10.64;100.00;97804.06;6282688;20;2756561;-49
2023/11/04 08:38:17;;;;;;;;;3.00;3.00;;;;;10.86;100.00;97806.44;6284921;20;2755573;-47
2023/11/04 08:40:45;;;;;;;;;3.00;3.00;;;;;10.71;100.00;97824.78;6285582;20;2750740;-49
2023/11/04 08:43:13;;;;;;;;;5.00;4.00;;;;;10.72;100.00;97831.88;6280929;20;2755617;-51
2023/11/04 08:45:41;;;;;;;;;5.00;3.00;;;;;10.56;100.00;97836.97;6284966;20;2748703;-48
2023/11/04 08:48:10;;;;;;;;;5.00;5.00;;;;;10.53;100.00;97829.16;6281349;20;2748327;-49
2023/11/04 08:50:39;;;;;;;;;3.67;3.00;;;;;10.40;100.00;97823.22;6299674;20;1810923;-52
2023/11/04 08:53:07;;;;;;;;;3.00;3.00;;;;;10.01;100.00;97826.66;6318159;20;2747169;-49
2023/11/04 08:55:35;;;;;;;;;5.00;2.00;;;;;9.86;100.00;97820.81;6286698;20;2739860;-50
2023/11/04 08:58:02;;;;;;;;;5.00;3.00;;;;;9.68;100.00;97817.09;6289242;20;2744054;-50
2023/11/04 09:00:31;;;;;;;;;1.00;1.00;;;;;9.64;100.00;97813.00;6307228;20;1804296;-49
2023/11/04 09:03:00;;;;;;;;;2.00;2.00;;;;;10.29;100.00;97822.38;6337703;20;1803707;-49
2023/11/04 09:05:28;;;;;;;;;2.00;2.00;;;;;10.58;100.00;97829.59;6317434;20;2744245;-51
2023/11/04 09:08:01;;;;;;;;;3.00;3.00;;;;;10.60;100.00;97824.94;6291587;20;2736759;-51
2023/11/04 09:10:29;;;;;;;;;4.00;4.00;;;;;10.62;100.00;97828.34;6290145;20;2750344;-49
2023/11/04 09:12:58;;;;;;;;;1.00;1.00;;;;;10.86;100.00;97833.28;6303651;20;1803486;-48
2023/11/04 09:15:27;;;;;;;;;4.00;2.00;;;;;10.92;100.00;97832.69;6317733;20;2741979;-46
2023/11/04 09:17:55;;;;;;;;;6.00;4.50;;;;;10.87;100.00;97842.19;6285747;20;2750377;-51
2023/11/04 09:20:23;;;;;;;;;2.50;2.50;;;;;10.76;100.00;97844.00;6288203;20;2748208;-48
2023/11/04 09:22:51;;;;;;;;;3.00;3.00;;;;;11.04;100.00;97836.09;6290702;20;2752376;-47
2023/11/04 09:25:20;;;;;;;;;3.00;3.00;;;;;11.18;100.00;97832.13;6289230;20;2742065;-48
2023/11/04 09:27:49;;;;;;;;;3.00;3.00;;;;;11.13;99.67;97829.84;6288185;20;2744107;-47
2023/11/04 09:30:18;;;;;;;;;3.00;3.00;;;;;11.07;99.75;97825.06;6282647;20;2752440;-48
2023/11/04 09:32:46;;;;;;;;;4.00;3.00;;;;;11.37;99.03;97820.47;6289339;20;2751329;-39
2023/11/04 09:35:15;;;;;;;;;4.00;3.00;;;;;11.55;98.75;97823.25;6299219;20;1805667;-45
2023/11/04 09:37:43;;;;;;;;;3.00;3.00;;;;;11.90;98.13;97809.16;6321073;20;2741938;-44
2023/11/04 09:40:12;;;;;;;;;4.00;3.00;;;;;11.41;96.47;97808.47;6291510;20;2738950;-50
2023/11/04 09:42:41;;;;;;;;;2.50;2.50;;;;;10.52;99.48;97806.84;6286563;20;2734783;-49
2023/11/04 09:45:10;;;;;;;;;4.00;2.00;;;;;11.13;100.00;97797.63;6287533;20;2752492;-49
2023/11/04 09:47:38;;;;;;;;;3.00;3.00;;;;;11.77;96.12;97795.16;6286013;20;2755626;-47
2023/11/04 09:50:10;;;;;;;;;3.00;3.00;;;;;11.88;96.48;97797.69;6304755;20;1802482;-48
2023/11/04 09:52:39;;;;;;;;;4.00;3.00;;;;;12.21;92.63;97793.53;6318891;20;2737791;-50
2023/11/04 09:55:08;;;;;;;;;6.00;5.00;;;;;12.40;93.31;97776.41;6287079;20;2739961;-39
2023/11/04 09:57:37;;;;;;;;;0.00;0.00;;;;;12.28;92.65;97761.50;6287457;20;2696185;-39
2023/11/04 10:00:09;;;;;;;;;2.00;2.00;;;;;12.68;93.76;97769.09;6287665;20;2746145;-39
2023/11/04 10:02:37;;;;;;;;;5.50;3.00;;;;;12.41;91.00;97767.34;6287956;20;2745159;-48
2023/11/04 10:05:06;;;;;;;;;4.00;4.00;;;;;12.62;91.52;97758.09;6285067;20;2756553;-50
2023/11/04 10:07:34;;;;;;;;;2.00;2.00;;;;;12.47;91.74;97755.94;6288693;20;2744043;-45
2023/11/04 10:10:03;;;;;;;;;4.00;1.00;;;;;12.36;87.58;97750.81;6286666;20;2731607;-46
2023/11/04 10:12:46;;;;;;;;;2.00;1.00;;;;;12.46;86.70;97750.72;6301473;20;1796171;-49
2023/11/04 10:15:14;;;;;;;;;2.00;2.00;;;;;12.67;89.83;97747.72;6318803;20;2744224;-51
2023/11/04 10:17:42;;;;;;;;;4.50;2.50;;;;;12.28;88.09;97737.28;6288645;20;2734666;-48
2023/11/04 10:20:12;;;;;;;;;3.00;3.00;;;;;12.60;88.51;97744.78;6285073;20;2744103;-50
2023/11/04 10:22:40;;;;;;;;;3.50;3.50;;;;;12.96;85.85;97736.66;6282501;20;2746307;-52
2023/11/04 10:25:09;;;;;;;;;2.00;2.00;;;;;13.00;84.57;97734.50;6305709;20;1805580;-51
2023/11/04 10:27:38;;;;;;;;;3.00;3.00;;;;;13.01;85.58;97725.44;6317820;20;2748242;-47
2023/11/04 10:30:11;;;;;;;;;2.00;2.00;;;;;12.82;83.61;97727.31;6287664;20;2739895;-45
2023/11/04 10:32:39;;;;;;;;;3.50;2.50;;;;;13.11;84.10;97727.00;6284163;20;2742002;-45
2023/11/04 10:35:12;;;;;;;;;2.00;2.00;;;;;13.31;81.12;97716.88;6286184;20;2748283;-50
2023/11/04 10:37:50;;;;;;;;;1.00;1.00;;;;;13.15;80.55;97711.34;6285989;20;2730521;-52
2023/11/04 10:40:20;;;;;;;;;1.00;1.00;;;;;13.02;79.39;97706.38;6302719;20;1800428;-49
2023/11/04 10:43:06;;;;;;;;;2.00;2.00;;;;;13.09;81.54;97718.22;6318844;20;2726440;-49
2023/11/04 10:45:52;;;;;;;;;1.00;1.00;;;;;13.17;82.88;97706.66;6297369;20;2724344;-50
2023/11/04 10:48:43;;;;;;;;;0.25;0.25;;;;;13.03;74.95;97712.63;6301706;20;1803597;-47
2023/11/04 10:51:28;;;;;;;;;2.50;1.00;;;;;13.45;75.04;97722.66;6317612;20;2740605;-51
2023/11/04 10:54:16;;;;;;;;;1.00;1.00;;;;;13.06;78.36;97715.00;6304780;20;1802442;-46
2023/11/04 10:56:52;;;;;;;;;1.00;1.00;;;;;13.48;77.17;97714.25;6319088;20;2727370;-49
2023/11/04 10:59:31;;;;;;;;;1.00;1.00;;;;;13.44;70.80;97716.44;6303251;20;1794090;-48
2023/11/04 11:02:00;;;;;;;;;1.00;1.00;;;;;13.38;72.95;97704.44;6319105;20;2724292;-48
2023/11/04 11:04:29;;;;;;;;;0.00;0.00;;;;;13.30;74.16;97709.78;6286952;20;2694111;-46
2023/11/04 11:07:00;;;;;;;;;1.00;1.00;;;;;13.70;71.06;97715.53;6303255;20;1803486;-44
2023/11/04 11:09:28;;;;;;;;;1.00;1.00;;;;;13.77;71.31;97712.03;6318763;20;2727703;-46
2023/11/04 11:12:20;;;;;;;;;2.00;1.00;;;;;13.59;70.97;97708.59;6303019;20;1805032;-47
2023/11/04 11:14:49;;;;;;;;;0.00;0.00;;;;;13.69;71.14;97709.31;6315972;20;2727389;-49
2023/11/04 11:17:30;;;;;;;;;1.50;1.00;;;;;13.59;70.98;97703.19;6300756;20;1807702;-43
2023/11/04 11:19:58;;;;;;;;;0.00;0.00;;;;;13.42;73.63;97702.25;6319890;20;2726523;-44
2023/11/04 11:22:30;;;;;;;;;1.00;1.00;;;;;13.24;69.29;97699.59;6289428;20;2728412;-47